Time;durP1;ratioP1;P1;durP2;ratioP2;P2;SDS_P1;SDS_P2;PMS_P1;PMS_P2;Temp;Humidity;BMP_temperature;BMP_pressure;BME280_temperature;BME280_humidity;BME280_pressure;Samples;Min_cycle;Max_cycle;Signal;HPM_P1;HPM_P2
2021/10/05 00:00:48;;;;;;;12.05;4.35;;;13.20;99.90;;;;;;5048879;28;20037;-75
2021/10/05 00:03:14;;;;;;;6.47;2.88;;;13.20;99.90;;;;;;5049427;28;20060;-75
2021/10/05 00:05:39;;;;;;;6.45;3.30;;;13.20;99.90;;;;;;5049466;28;20036;-75
2021/10/05 00:08:05;;;;;;;3.38;2.72;;;13.10;99.90;;;;;;5033988;28;20112;-76
2021/10/05 00:10:31;;;;;;;6.70;3.33;;;13.10;99.90;;;;;;5049196;28;20073;-75
2021/10/05 00:12:56;;;;;;;5.82;3.53;;;13.10;99.90;;;;;;5049259;28;20040;-75
2021/10/05 00:15:22;;;;;;;5.68;3.10;;;13.10;99.90;;;;;;5033825;28;20034;-75
2021/10/05 00:17:48;;;;;;;4.57;3.35;;;13.10;99.90;;;;;;5033512;28;20051;-75
2021/10/05 00:20:15;;;;;;;5.63;3.08;;;13.00;99.90;;;;;;5033910;28;20029;-75
2021/10/05 00:22:42;;;;;;;4.75;3.40;;;12.90;99.90;;;;;;5033570;28;20036;-75
2021/10/05 00:25:08;;;;;;;5.53;3.78;;;13.10;99.90;;;;;;5033658;28;20112;-75
2021/10/05 00:27:34;;;;;;;4.82;3.33;;;13.10;99.90;;;;;;5032099;28;20075;-75
2021/10/05 00:30:01;;;;;;;5.20;3.92;;;13.00;99.90;;;;;;5033408;28;20033;-76
2021/10/05 00:32:26;;;;;;;7.40;3.90;;;12.90;99.90;;;;;;5033210;28;20508;-75
2021/10/05 00:34:52;;;;;;;6.22;4.13;;;12.90;99.90;;;;;;5033364;28;20064;-75
2021/10/05 00:37:18;;;;;;;7.88;4.00;;;12.90;99.90;;;;;;5048721;28;20040;-75
2021/10/05 00:39:44;;;;;;;7.03;4.07;;;12.90;99.90;;;;;;5033177;28;20142;-75
2021/10/05 00:42:10;;;;;;;9.25;3.83;;;12.90;99.90;;;;;;5033111;28;20029;-75
2021/10/05 00:44:39;;;;;;;5.00;4.25;;;12.90;99.90;;;;;;5048485;28;20474;-74
2021/10/05 00:47:14;;;;;;;6.25;3.53;;;12.80;99.90;;;;;;5048369;28;20036;-75
2021/10/05 00:49:44;;;;;;;4.82;3.72;;;12.90;99.90;;;;;;5033021;28;20044;-75
2021/10/05 00:52:12;;;;;;;7.80;4.95;;;12.90;99.90;;;;;;5032875;28;20367;-75
2021/10/05 00:54:40;;;;;;;6.80;3.88;;;12.90;99.90;;;;;;5032791;28;20036;-75
2021/10/05 00:57:08;;;;;;;8.70;4.78;;;12.90;99.90;;;;;;5032780;28;20037;-75
2021/10/05 00:59:34;;;;;;;5.47;4.63;;;12.80;99.90;;;;;;5048325;28;20029;-75
2021/10/05 01:02:02;;;;;;;5.18;4.40;;;12.90;99.90;;;;;;5048214;28;20029;-75
2021/10/05 01:04:28;;;;;;;10.27;4.63;;;12.90;99.90;;;;;;5032695;28;20033;-76
2021/10/05 01:07:05;;;;;;;10.10;5.20;;;12.70;99.90;;;;;;5048094;28;20578;-75
2021/10/05 01:09:33;;;;;;;6.15;5.25;;;12.70;99.90;;;;;;5032687;28;20034;-76
2021/10/05 01:11:59;;;;;;;6.35;5.28;;;12.60;99.90;;;;;;5048394;28;20033;-75
2021/10/05 01:14:25;;;;;;;6.00;5.05;;;12.60;99.90;;;;;;5031904;28;20033;-75
2021/10/05 01:16:55;;;;;;;6.68;5.28;;;12.70;99.90;;;;;;5032531;28;20073;-75
2021/10/05 01:19:21;;;;;;;5.90;5.25;;;12.60;99.90;;;;;;5048046;28;20044;-75
2021/10/05 01:21:47;;;;;;;7.18;5.00;;;12.70;99.90;;;;;;5032429;28;20076;-75
2021/10/05 01:24:19;;;;;;;6.50;5.47;;;12.60;99.90;;;;;;5032744;28;20426;-75
2021/10/05 01:26:45;;;;;;;7.05;5.40;;;12.50;99.90;;;;;;5032655;28;20071;-75
2021/10/05 01:29:20;;;;;;;6.32;5.30;;;12.60;99.90;;;;;;5047973;28;20052;-76
2021/10/05 01:31:51;;;;;;;6.47;4.97;;;12.60;99.90;;;;;;5047499;28;20476;-75
2021/10/05 01:34:19;;;;;;;8.68;5.82;;;12.70;99.90;;;;;;5032345;28;20080;-76
2021/10/05 01:36:50;;;;;;;5.07;4.50;;;12.70;99.90;;;;;;5047662;28;20050;-76
2021/10/05 01:39:40;;;;;;;7.33;4.77;;;12.60;99.90;;;;;;5047812;28;20226;-76
2021/10/05 01:42:12;;;;;;;5.60;3.97;;;12.70;99.90;;;;;;5032456;28;20292;-76
2021/10/05 01:44:39;;;;;;;6.05;4.70;;;12.60;99.90;;;;;;5047562;28;20091;-75
2021/10/05 01:47:07;;;;;;;4.90;3.75;;;12.60;99.90;;;;;;5032436;28;20084;-76
2021/10/05 01:49:34;;;;;;;6.88;4.50;;;12.60;99.90;;;;;;5032279;28;20075;-75
2021/10/05 01:52:00;;;;;;;9.45;4.13;;;12.50;99.90;;;;;;5032160;28;20041;-76
2021/10/05 01:54:26;;;;;;;6.10;4.63;;;12.50;99.90;;;;;;5047488;28;20037;-75
2021/10/05 01:56:52;;;;;;;8.18;6.40;;;12.50;99.90;;;;;;5032243;28;20025;-75
2021/10/05 01:59:18;;;;;;;9.38;4.70;;;12.40;99.90;;;;;;5032273;28;20033;-76
2021/10/05 02:01:44;;;;;;;5.72;4.50;;;12.40;99.90;;;;;;5032290;28;20048;-76
2021/10/05 02:04:10;;;;;;;6.72;5.40;;;12.30;99.90;;;;;;5047632;28;20037;-76
2021/10/05 02:06:38;;;;;;;6.78;5.35;;;12.30;99.90;;;;;;5031934;28;20046;-76
2021/10/05 02:09:05;;;;;;;10.20;5.88;;;12.30;99.90;;;;;;5031025;28;20030;-75
2021/10/05 02:11:31;;;;;;;9.90;5.93;;;12.30;99.90;;;;;;5031912;28;20490;-76
2021/10/05 02:13:57;;;;;;;7.97;5.68;;;12.30;99.90;;;;;;5031937;28;20032;-76
2021/10/05 02:16:23;;;;;;;6.82;5.50;;;12.30;99.90;;;;;;5032034;28;20065;-76
2021/10/05 02:18:49;;;;;;;5.93;5.15;;;12.30;99.90;;;;;;5032046;28;20064;-76
2021/10/05 02:21:18;;;;;;;7.90;5.70;;;12.30;99.90;;;;;;5032212;28;20037;-76
2021/10/05 02:26:32;;;;;;;9.48;5.85;;;12.20;99.90;;;;;;5035857;28;20108;-79
2021/10/05 02:28:58;;;;;;;8.30;5.85;;;12.30;99.90;;;;;;5052558;28;20030;-81
2021/10/05 02:31:23;;;;;;;8.30;5.13;;;12.30;99.90;;;;;;5054401;28;20029;-80
2021/10/05 02:33:49;;;;;;;8.30;4.80;;;12.50;99.90;;;;;;5054110;28;20025;-80
2021/10/05 02:36:15;;;;;;;8.15;5.28;;;12.50;99.90;;;;;;5038987;28;20052;-80
2021/10/05 02:38:41;;;;;;;8.77;5.45;;;12.40;99.90;;;;;;5056459;28;20513;-80
2021/10/05 02:41:07;;;;;;;7.90;5.50;;;12.40;99.90;;;;;;5055717;28;20120;-79
2021/10/05 02:43:33;;;;;;;9.63;6.65;;;12.50;99.90;;;;;;5055688;28;20049;-80
2021/10/05 02:45:59;;;;;;;6.03;5.43;;;12.40;99.90;;;;;;5039949;28;20037;-80
2021/10/05 02:48:25;;;;;;;12.00;6.88;;;12.50;99.90;;;;;;5036484;28;20697;-80
2021/10/05 02:50:51;;;;;;;6.80;5.75;;;12.50;99.90;;;;;;5034884;28;20485;-80
2021/10/05 02:53:16;;;;;;;8.85;5.85;;;12.40;99.90;;;;;;5035699;28;20029;-80
2021/10/05 02:55:43;;;;;;;9.18;6.00;;;12.40;99.90;;;;;;5035639;28;20478;-78
2021/10/05 02:58:09;;;;;;;7.10;5.80;;;12.30;99.90;;;;;;5050791;28;20030;-79
2021/10/05 03:00:35;;;;;;;7.93;5.82;;;12.40;99.90;;;;;;5050692;28;20025;-79
2021/10/05 03:03:01;;;;;;;8.57;6.45;;;12.40;99.90;;;;;;5035382;28;20064;-79
2021/10/05 03:05:27;;;;;;;7.63;6.00;;;12.40;99.90;;;;;;5035366;28;20083;-78
2021/10/05 03:07:52;;;;;;;9.77;5.78;;;12.40;99.90;;;;;;5035307;28;20030;-79
2021/10/05 03:10:18;;;;;;;7.15;4.88;;;12.50;99.90;;;;;;5035097;28;20082;-77
2021/10/05 03:12:44;;;;;;;7.03;4.75;;;12.50;99.90;;;;;;5050188;28;20037;-76
2021/10/05 03:15:10;;;;;;;7.47;4.53;;;12.40;99.90;;;;;;5035353;28;20083;-76
2021/10/05 03:17:35;;;;;;;6.15;4.43;;;12.30;99.90;;;;;;5034912;28;20046;-77
2021/10/05 03:20:02;;;;;;;5.32;4.20;;;12.30;99.90;;;;;;5050458;28;20497;-76
2021/10/05 03:22:28;;;;;;;8.13;3.95;;;12.30;99.90;;;;;;5034757;28;20437;-77
2021/10/05 03:24:54;;;;;;;4.80;3.70;;;12.30;99.90;;;;;;5034569;28;20034;-77
2021/10/05 03:27:19;;;;;;;4.60;3.40;;;12.30;99.90;;;;;;5035018;28;20082;-77
2021/10/05 03:29:45;;;;;;;7.18;3.67;;;12.30;99.90;;;;;;5034456;28;20045;-76
2021/10/05 03:32:11;;;;;;;5.28;4.22;;;12.30;99.90;;;;;;5034525;28;20032;-77
2021/10/05 03:34:37;;;;;;;8.88;4.45;;;12.30;99.90;;;;;;5034554;28;20683;-77
2021/10/05 03:37:03;;;;;;;4.38;3.25;;;12.40;99.90;;;;;;5033740;28;20040;-77
2021/10/05 03:39:29;;;;;;;4.57;3.50;;;12.30;99.90;;;;;;5034352;28;20021;-77
2021/10/05 03:41:55;;;;;;;4.25;3.05;;;12.30;99.90;;;;;;5049665;28;20065;-77
2021/10/05 03:44:20;;;;;;;4.22;2.55;;;12.30;99.90;;;;;;5034195;28;20463;-77
2021/10/05 03:46:46;;;;;;;6.00;3.25;;;12.40;99.90;;;;;;5033985;28;20068;-77
2021/10/05 03:49:12;;;;;;;5.88;3.22;;;12.30;99.90;;;;;;5034314;28;20029;-77
2021/10/05 03:51:38;;;;;;;4.15;3.25;;;12.30;99.90;;;;;;5039223;28;20466;-78
2021/10/05 03:54:04;;;;;;;4.75;3.50;;;12.20;99.90;;;;;;5044375;28;20086;-75
2021/10/05 03:56:30;;;;;;;4.05;3.13;;;12.30;99.90;;;;;;5057785;28;20060;-75
2021/10/05 03:58:56;;;;;;;6.72;3.42;;;12.30;99.90;;;;;;5056596;28;20458;-74
2021/10/05 04:01:21;;;;;;;7.57;2.88;;;12.30;99.90;;;;;;5042990;28;20036;-76
2021/10/05 04:03:47;;;;;;;5.93;4.10;;;12.20;99.90;;;;;;5043157;28;20108;-80
2021/10/05 04:06:13;;;;;;;9.38;4.43;;;12.10;99.90;;;;;;5053538;28;20053;-74
2021/10/05 04:08:40;;;;;;;7.38;4.65;;;12.20;99.90;;;;;;5053560;28;20029;-74
2021/10/05 04:11:06;;;;;;;6.03;4.28;;;12.20;99.90;;;;;;5053950;28;20029;-74
2021/10/05 04:13:31;;;;;;;6.38;4.25;;;12.20;99.90;;;;;;5053982;28;20024;-74
2021/10/05 04:15:58;;;;;;;7.22;4.07;;;12.30;99.90;;;;;;5035616;28;20444;-74
2021/10/05 04:18:24;;;;;;;7.15;3.95;;;12.40;99.90;;;;;;5052308;28;20124;-74
2021/10/05 04:20:50;;;;;;;6.07;3.88;;;12.40;99.90;;;;;;5056004;28;20557;-74
2021/10/05 04:23:16;;;;;;;4.93;3.50;;;12.50;99.90;;;;;;5073332;28;20068;-75
2021/10/05 04:25:41;;;;;;;6.60;3.67;;;12.50;99.90;;;;;;5073642;28;20052;-78
2021/10/05 04:28:07;;;;;;;8.27;3.85;;;12.50;99.90;;;;;;5073101;28;20469;-73
2021/10/05 04:30:34;;;;;;;4.45;3.42;;;12.40;99.90;;;;;;5071901;28;20082;-74
2021/10/05 04:33:00;;;;;;;6.63;4.50;;;12.40;99.90;;;;;;5073117;28;20024;-72
2021/10/05 04:35:27;;;;;;;10.18;3.60;;;12.50;99.90;;;;;;5073170;28;20115;-71
2021/10/05 04:37:53;;;;;;;4.90;3.90;;;12.50;99.90;;;;;;5073185;28;20073;-73
2021/10/05 04:40:19;;;;;;;7.53;4.90;;;12.50;99.90;;;;;;5072033;28;20108;-72
2021/10/05 04:42:45;;;;;;;7.95;4.97;;;12.40;99.90;;;;;;5073213;28;20107;-71
2021/10/05 04:45:11;;;;;;;7.60;5.20;;;12.40;99.90;;;;;;5073306;28;20083;-72
2021/10/05 04:47:37;;;;;;;9.48;5.75;;;12.40;99.90;;;;;;5072850;28;20417;-73
2021/10/05 04:50:08;;;;;;;8.90;6.40;;;12.30;99.90;;;;;;5073214;28;20469;-73
2021/10/05 04:52:35;;;;;;;7.68;5.95;;;12.20;99.90;;;;;;5055010;28;20028;-72
2021/10/05 04:55:02;;;;;;;8.88;6.32;;;12.30;99.90;;;;;;5042069;28;20113;-72
2021/10/05 04:57:28;;;;;;;13.80;9.18;;;12.20;99.90;;;;;;5032693;28;20041;-74
2021/10/05 04:59:54;;;;;;;11.85;8.57;;;12.20;99.90;;;;;;5061208;28;20036;-73
2021/10/05 05:02:19;;;;;;;12.45;8.60;;;12.30;99.90;;;;;;5033220;28;20040;-73
2021/10/05 05:04:45;;;;;;;14.45;9.00;;;12.30;99.90;;;;;;5032551;28;20025;-73
2021/10/05 05:07:12;;;;;;;11.60;8.38;;;12.30;99.90;;;;;;5031331;28;20060;-74
2021/10/05 05:09:39;;;;;;;16.52;8.82;;;12.30;99.90;;;;;;5031786;28;20037;-74
2021/10/05 05:12:05;;;;;;;12.98;8.63;;;12.40;99.90;;;;;;5032678;28;20549;-74
2021/10/05 05:14:31;;;;;;;11.60;7.95;;;12.40;99.90;;;;;;5042376;28;20033;-74
2021/10/05 05:16:57;;;;;;;12.15;7.22;;;12.30;99.90;;;;;;5051888;28;20515;-74
2021/10/05 05:19:23;;;;;;;11.07;8.18;;;12.20;99.90;;;;;;5052520;28;20029;-75
2021/10/05 05:21:48;;;;;;;12.25;8.57;;;12.20;99.90;;;;;;5050884;28;20132;-75
2021/10/05 05:24:15;;;;;;;13.27;6.45;;;12.30;99.90;;;;;;5052175;28;20103;-75
2021/10/05 05:26:41;;;;;;;10.07;6.50;;;12.20;99.90;;;;;;5052147;28;20036;-74
2021/10/05 05:29:07;;;;;;;10.25;6.32;;;12.20;99.90;;;;;;5051326;28;20037;-72
2021/10/05 05:31:33;;;;;;;10.55;5.57;;;12.20;99.90;;;;;;5042700;28;20554;-72
2021/10/05 05:33:59;;;;;;;9.40;5.90;;;12.10;99.90;;;;;;5038999;28;20056;-72
2021/10/05 05:36:25;;;;;;;8.07;5.40;;;12.10;99.90;;;;;;5049568;28;20064;-72
2021/10/05 05:38:51;;;;;;;8.05;5.35;;;12.10;99.90;;;;;;5050496;28;20036;-72
2021/10/05 05:41:17;;;;;;;8.98;6.25;;;12.00;99.90;;;;;;5052008;28;20514;-72
2021/10/05 05:43:44;;;;;;;9.88;5.32;;;12.10;99.90;;;;;;5051991;28;20079;-73
2021/10/05 05:46:11;;;;;;;6.72;5.28;;;12.10;99.90;;;;;;5051949;28;20029;-72
2021/10/05 05:48:37;;;;;;;7.32;5.05;;;12.10;99.90;;;;;;5052143;28;20021;-72
2021/10/05 05:51:04;;;;;;;7.50;5.22;;;12.10;99.90;;;;;;5051875;28;20133;-72
2021/10/05 05:53:29;;;;;;;7.82;5.35;;;12.10;99.90;;;;;;5051701;28;20548;-73
2021/10/05 05:55:55;;;;;;;8.43;5.50;;;12.10;99.90;;;;;;5052794;28;20061;-73
2021/10/05 05:58:21;;;;;;;7.43;5.18;;;12.30;99.90;;;;;;5032341;28;20461;-73
2021/10/05 06:00:47;;;;;;;8.20;5.03;;;12.40;99.90;;;;;;5034981;28;20177;-73
2021/10/05 06:03:13;;;;;;;6.93;5.03;;;12.20;99.90;;;;;;5036399;28;20167;-73
2021/10/05 06:05:39;;;;;;;7.10;5.47;;;12.20;99.90;;;;;;5036129;28;20033;-73
2021/10/05 06:08:06;;;;;;;10.13;5.72;;;12.30;99.90;;;;;;5055353;28;20159;-73
2021/10/05 06:10:32;;;;;;;8.18;5.70;;;12.20;99.90;;;;;;5055960;28;20061;-73
2021/10/05 06:12:58;;;;;;;9.77;6.05;;;12.20;99.90;;;;;;5056055;28;20432;-73
2021/10/05 06:15:24;;;;;;;7.82;5.55;;;12.30;99.90;;;;;;5055831;28;20090;-73
2021/10/05 06:17:51;;;;;;;7.75;5.75;;;12.30;99.90;;;;;;5071198;28;20080;-72
2021/10/05 06:20:23;;;;;;;8.75;6.25;;;12.20;99.90;;;;;;5056038;28;20071;-73
2021/10/05 06:22:50;;;;;;;10.75;5.97;;;12.30;99.90;;;;;;5055721;28;20067;-73
2021/10/05 06:25:22;;;;;;;10.75;6.85;;;12.50;99.90;;;;;;5055749;28;20032;-73
2021/10/05 06:27:48;;;;;;;11.27;6.57;;;12.40;99.90;;;;;;5071016;28;20350;-72
2021/10/05 06:30:16;;;;;;;10.43;7.25;;;12.50;99.90;;;;;;5071192;28;20021;-73
2021/10/05 06:32:44;;;;;;;9.45;7.20;;;12.40;99.90;;;;;;5055409;28;20500;-73
2021/10/05 06:35:11;;;;;;;10.32;6.78;;;12.40;99.90;;;;;;5056093;28;20116;-72
2021/10/05 06:37:38;;;;;;;11.27;6.75;;;12.50;99.90;;;;;;5071122;28;20028;-73
2021/10/05 06:40:06;;;;;;;11.77;7.15;;;12.50;99.90;;;;;;5055242;28;20029;-73
2021/10/05 06:42:35;;;;;;;10.10;6.82;;;12.50;99.90;;;;;;5070711;28;20060;-73
2021/10/05 06:45:05;;;;;;;10.70;6.90;;;12.60;99.90;;;;;;5070222;28;20033;-73
2021/10/05 06:47:30;;;;;;;11.82;6.55;;;12.50;99.90;;;;;;5054005;28;20567;-73
2021/10/05 06:49:57;;;;;;;11.80;6.60;;;12.60;99.90;;;;;;5055024;28;20049;-73
2021/10/05 06:52:24;;;;;;;11.32;6.80;;;12.50;99.90;;;;;;5070428;28;20028;-73
2021/10/05 06:54:50;;;;;;;9.80;6.65;;;12.50;99.90;;;;;;5070346;28;20544;-73
2021/10/05 06:57:15;;;;;;;12.82;6.70;;;12.60;99.90;;;;;;5055402;28;20037;-73
2021/10/05 06:59:41;;;;;;;11.75;6.65;;;12.50;99.90;;;;;;5070708;28;20044;-73
2021/10/05 07:02:07;;;;;;;10.73;6.13;;;12.70;99.90;;;;;;5070284;28;20029;-73
2021/10/05 07:04:33;;;;;;;13.88;6.68;;;12.90;99.90;;;;;;5070044;28;20041;-73
2021/10/05 07:06:59;;;;;;;10.27;6.28;;;12.90;99.90;;;;;;5070451;28;20040;-73
2021/10/05 07:09:24;;;;;;;28.48;8.15;;;13.00;99.90;;;;;;5054798;28;20033;-73
2021/10/05 07:11:50;;;;;;;15.80;7.18;;;13.00;99.90;;;;;;5055006;28;20032;-73
2021/10/05 07:14:16;;;;;;;10.20;6.40;;;13.00;99.90;;;;;;5054727;28;20532;-74
2021/10/05 07:16:42;;;;;;;9.30;5.90;;;13.10;99.90;;;;;;5054432;28;20069;-73
2021/10/05 07:19:08;;;;;;;9.57;6.10;;;13.20;99.90;;;;;;5070024;28;20025;-73
2021/10/05 07:21:34;;;;;;;7.15;5.53;;;13.20;99.90;;;;;;5055043;28;20040;-73
2021/10/05 07:23:59;;;;;;;11.15;5.78;;;13.30;99.90;;;;;;5054630;28;20082;-73
2021/10/05 07:26:25;;;;;;;11.23;6.35;;;13.30;99.90;;;;;;5070334;28;20029;-73
2021/10/05 07:28:51;;;;;;;9.43;6.20;;;13.20;99.90;;;;;;5054613;28;20025;-73
2021/10/05 07:31:17;;;;;;;9.25;5.90;;;13.20;99.90;;;;;;5053608;28;20036;-73
2021/10/05 07:33:44;;;;;;;12.15;6.50;;;13.30;99.90;;;;;;5054358;28;20029;-73
2021/10/05 07:36:10;;;;;;;8.43;5.30;;;13.30;99.90;;;;;;5052928;28;20056;-73
2021/10/05 07:38:36;;;;;;;12.80;6.32;;;13.50;99.90;;;;;;5054567;28;20029;-73
2021/10/05 07:41:04;;;;;;;8.35;5.53;;;13.40;99.90;;;;;;5054058;28;20032;-73
2021/10/05 07:43:30;;;;;;;56.28;29.73;;;13.40;99.90;;;;;;5054693;28;20062;-72
2021/10/05 07:45:58;;;;;;;12.48;6.28;;;13.30;99.90;;;;;;5054402;28;20451;-72
2021/10/05 07:48:25;;;;;;;8.90;5.53;;;13.40;99.90;;;;;;5053985;28;20055;-72
2021/10/05 07:50:53;;;;;;;10.57;5.70;;;13.50;99.90;;;;;;5053909;28;20116;-72
2021/10/05 07:53:19;;;;;;;9.40;6.43;;;13.50;99.90;;;;;;5053893;28;20037;-74
2021/10/05 07:55:45;;;;;;;10.65;7.00;;;13.50;99.90;;;;;;5054205;28;20107;-74
2021/10/05 07:58:11;;;;;;;10.65;6.60;;;13.40;99.90;;;;;;5054148;28;20117;-72
2021/10/05 08:00:37;;;;;;;12.98;6.80;;;13.60;99.90;;;;;;5069316;28;20036;-74
2021/10/05 08:03:03;;;;;;;10.60;6.82;;;13.60;99.90;;;;;;5053787;28;20055;-72
2021/10/05 08:05:29;;;;;;;7.50;5.82;;;13.70;99.90;;;;;;5054294;28;20029;-72
2021/10/05 08:07:58;;;;;;;7.72;5.07;;;13.70;99.90;;;;;;5069017;28;20057;-72
2021/10/05 08:10:24;;;;;;;8.07;4.40;;;13.70;99.90;;;;;;5068640;28;20359;-72
2021/10/05 08:12:51;;;;;;;8.63;5.18;;;13.80;99.90;;;;;;5053910;28;20024;-72
2021/10/05 08:15:17;;;;;;;7.53;4.85;;;13.80;99.90;;;;;;5068804;28;20090;-73
2021/10/05 08:17:42;;;;;;;6.47;4.65;;;13.80;99.90;;;;;;5053684;28;20044;-73
2021/10/05 08:20:10;;;;;;;6.55;4.50;;;13.80;99.90;;;;;;5053393;28;20029;-73
2021/10/05 08:22:36;;;;;;;7.10;4.85;;;13.80;99.90;;;;;;5051702;28;20025;-74
2021/10/05 08:25:03;;;;;;;9.23;4.80;;;13.60;99.90;;;;;;5053599;28;20025;-73
2021/10/05 08:27:30;;;;;;;8.60;4.95;;;13.60;99.90;;;;;;5068915;28;20565;-73
2021/10/05 08:29:56;;;;;;;10.30;5.60;;;13.70;99.90;;;;;;5053377;28;20036;-73
2021/10/05 08:32:22;;;;;;;9.52;5.70;;;13.70;99.90;;;;;;5053353;28;20083;-73
2021/10/05 08:34:48;;;;;;;9.75;5.78;;;13.70;99.90;;;;;;5053522;28;20025;-73
2021/10/05 08:37:14;;;;;;;10.32;6.95;;;13.70;99.90;;;;;;5053003;28;20060;-73
2021/10/05 08:39:39;;;;;;;12.55;6.63;;;13.70;99.90;;;;;;5053095;28;20072;-73
2021/10/05 08:42:06;;;;;;;10.60;6.97;;;13.70;99.90;;;;;;5053131;28;20045;-73
2021/10/05 08:44:33;;;;;;;9.90;6.90;;;13.60;99.90;;;;;;5068406;28;20028;-73
2021/10/05 08:46:59;;;;;;;12.98;8.60;;;13.60;99.90;;;;;;5068243;28;20040;-73
2021/10/05 08:49:25;;;;;;;17.27;8.00;;;13.50;99.90;;;;;;5068368;28;20103;-73
2021/10/05 08:51:52;;;;;;;10.70;6.93;;;13.60;99.90;;;;;;5051433;28;20389;-74
2021/10/05 08:54:19;;;;;;;9.55;6.90;;;13.50;99.90;;;;;;5052932;28;20473;-73
2021/10/05 08:56:45;;;;;;;10.43;7.18;;;13.50;99.90;;;;;;5052842;28;20060;-73
2021/10/05 08:59:14;;;;;;;13.38;7.18;;;13.50;99.90;;;;;;5052703;28;20410;-73
2021/10/05 09:01:41;;;;;;;11.00;6.97;;;13.50;99.90;;;;;;5052805;28;20037;-73
2021/10/05 09:04:07;;;;;;;10.75;7.65;;;13.60;99.90;;;;;;5052656;28;20101;-73
2021/10/05 09:06:36;;;;;;;11.32;7.13;;;13.60;99.90;;;;;;5052798;28;20029;-73
2021/10/05 09:09:05;;;;;;;11.10;6.63;;;13.70;99.90;;;;;;5052513;28;20029;-73
2021/10/05 09:11:43;;;;;;;9.43;6.85;;;13.80;99.90;;;;;;5067810;28;20036;-72
2021/10/05 09:14:09;;;;;;;9.88;6.75;;;13.70;99.90;;;;;;5068192;28;20047;-72
2021/10/05 09:16:36;;;;;;;10.02;6.97;;;13.70;99.90;;;;;;5052691;28;20082;-73
2021/10/05 09:19:18;;;;;;;11.32;7.32;;;13.70;99.90;;;;;;5052423;28;20029;-73
2021/10/05 09:21:53;;;;;;;13.50;8.10;;;13.80;99.90;;;;;;5052372;28;20025;-73
2021/10/05 09:24:28;;;;;;;15.85;9.75;;;13.70;99.90;;;;;;5067364;28;20472;-73
2021/10/05 09:26:58;;;;;;;13.50;8.30;;;13.70;99.90;;;;;;5067879;28;20086;-73
2021/10/05 09:29:28;;;;;;;14.65;8.52;;;13.70;99.90;;;;;;5050977;28;20029;-73
2021/10/05 09:31:59;;;;;;;15.93;7.57;;;13.80;99.90;;;;;;5052710;28;20033;-73
2021/10/05 09:34:44;;;;;;;;;;;14.00;99.90;;;;;;5051799;28;20045;-73
2021/10/05 09:37:19;;;;;;;10.60;7.22;;;14.00;99.90;;;;;;5050690;28;19912;-73
2021/10/05 09:40:10;;;;;;;16.25;8.73;;;14.10;99.90;;;;;;5051870;28;20079;-73
2021/10/05 09:42:47;;;;;;;27.90;8.70;;;14.40;99.90;;;;;;5052203;28;20555;-73
2021/10/05 09:45:24;;;;;;;16.23;8.27;;;14.50;99.90;;;;;;5066089;28;20045;-73
2021/10/05 09:47:57;;;;;;;14.95;8.15;;;14.50;99.90;;;;;;5052317;28;20040;-73
2021/10/05 09:50:35;;;;;;;12.45;8.18;;;14.70;99.90;;;;;;5067276;28;20029;-73
2021/10/05 09:53:13;;;;;;;11.73;7.38;;;14.70;99.90;;;;;;5067256;28;20119;-73
2021/10/05 09:55:42;;;;;;;13.10;8.68;;;14.60;99.90;;;;;;5067018;28;20033;-73
2021/10/05 09:58:09;;;;;;;13.30;8.40;;;14.50;99.90;;;;;;5052164;28;20036;-73
2021/10/05 10:00:42;;;;;;;13.32;9.07;;;14.50;99.90;;;;;;5051942;28;20033;-73
2021/10/05 10:03:09;;;;;;;14.55;9.00;;;14.50;99.90;;;;;;5066828;28;20102;-73
2021/10/05 10:05:38;;;;;;;11.50;7.90;;;14.50;99.90;;;;;;5051928;28;20493;-73
2021/10/05 10:08:05;;;;;;;11.50;7.53;;;14.30;99.90;;;;;;5050639;28;20048;-73
2021/10/05 10:10:38;;;;;;;12.02;8.25;;;14.40;99.90;;;;;;5067615;28;20048;-73
2021/10/05 10:13:12;;;;;;;12.35;7.30;;;14.50;99.90;;;;;;5051690;28;20040;-73
2021/10/05 10:15:41;;;;;;;9.45;6.47;;;14.50;99.90;;;;;;5050658;28;20045;-73
2021/10/05 10:18:08;;;;;;;10.38;6.72;;;14.60;99.90;;;;;;5066802;28;20080;-73
2021/10/05 10:20:37;;;;;;;11.98;7.32;;;14.70;99.90;;;;;;5051912;28;20070;-73
2021/10/05 10:23:15;;;;;;;11.77;6.88;;;14.80;99.90;;;;;;5050468;28;20040;-73
2021/10/05 10:25:56;;;;;;;10.43;6.70;;;14.90;99.90;;;;;;5067033;28;20040;-73
2021/10/05 10:28:40;;;;;;;8.95;5.93;;;15.00;99.90;;;;;;5051868;28;20080;-73
2021/10/05 10:31:10;;;;;;;11.63;7.07;;;14.90;99.90;;;;;;5067188;28;20029;-73
2021/10/05 10:33:53;;;;;;;9.25;6.55;;;15.10;99.90;;;;;;5066868;28;20510;-72
2021/10/05 10:36:40;;;;;;;8.88;5.68;;;15.30;99.90;;;;;;5051796;28;20029;-72
2021/10/05 10:39:13;;;;;;;9.77;5.95;;;15.40;99.90;;;;;;5051847;28;20033;-73
2021/10/05 10:41:43;;;;;;;8.20;5.35;;;15.40;99.90;;;;;;5051455;28;20072;-74
2021/10/05 10:44:14;;;;;;;8.45;5.78;;;15.40;99.90;;;;;;5051897;28;20060;-73
2021/10/05 10:46:42;;;;;;;7.97;5.80;;;15.40;99.90;;;;;;5069222;28;20477;-73
2021/10/05 10:49:20;;;;;;;7.38;5.03;;;15.40;99.90;;;;;;5070423;28;20025;-73
2021/10/05 10:51:48;;;;;;;6.60;4.82;;;15.30;99.90;;;;;;5055291;28;20041;-73
2021/10/05 10:54:22;;;;;;;9.30;5.50;;;15.20;99.90;;;;;;5055401;28;20025;-73
2021/10/05 10:57:08;;;;;;;6.90;5.03;;;15.10;99.90;;;;;;5070525;28;20509;-73
2021/10/05 10:59:34;;;;;;;7.90;4.93;;;15.20;99.90;;;;;;5070783;28;20079;-73
2021/10/05 11:02:06;;;;;;;6.07;3.30;;;15.30;99.90;;;;;;5053818;28;20064;-73
2021/10/05 11:04:33;;;;;;;;;;;15.30;99.90;;;;;;5054517;28;20032;-73
2021/10/05 11:06:59;;;;;;;6.15;3.80;;;15.40;99.90;;;;;;5053793;28;19912;-73
2021/10/05 11:09:34;;;;;;;4.95;2.90;;;15.30;99.90;;;;;;5070523;28;20473;-73
2021/10/05 11:12:06;;;;;;;4.47;2.88;;;15.30;99.90;;;;;;5070042;28;20041;-73
2021/10/05 11:14:37;;;;;;;5.15;2.88;;;15.40;99.90;;;;;;5069706;28;20032;-73
2021/10/05 11:17:09;;;;;;;5.65;2.83;;;15.60;99.90;;;;;;5054768;28;20490;-73
2021/10/05 11:19:40;;;;;;;4.00;2.40;;;15.80;99.90;;;;;;5070414;28;20049;-73
2021/10/05 11:22:14;;;;;;;5.82;2.20;;;16.10;99.90;;;;;;5054652;28;20041;-74
2021/10/05 11:24:49;;;;;;;4.43;2.70;;;16.50;99.90;;;;;;5054915;28;20079;-73
2021/10/05 11:27:24;;;;;;;3.85;2.53;;;16.80;99.90;;;;;;5069754;28;20490;-73
2021/10/05 11:29:51;;;;;;;4.32;2.70;;;16.80;99.90;;;;;;5069966;28;20041;-73
2021/10/05 11:32:20;;;;;;;6.40;3.00;;;16.80;99.90;;;;;;5054434;28;20029;-73
2021/10/05 11:34:49;;;;;;;4.45;2.25;;;17.10;99.90;;;;;;5069829;28;20422;-72
2021/10/05 11:37:18;;;;;;;3.22;1.80;;;17.20;99.90;;;;;;5069670;28;20036;-73
2021/10/05 11:39:46;;;;;;;2.75;1.80;;;17.00;99.90;;;;;;5054553;28;20374;-73
2021/10/05 11:42:21;;;;;;;3.80;1.75;;;16.60;99.90;;;;;;5053850;28;20120;-73
2021/10/05 11:44:51;;;;;;;2.30;1.38;;;16.40;99.90;;;;;;5054676;28;20041;-73
2021/10/05 11:47:21;;;;;;;2.63;1.50;;;16.20;99.90;;;;;;5069535;28;20075;-73
2021/10/05 11:49:52;;;;;;;2.58;1.20;;;16.20;99.90;;;;;;5054480;28;20048;-73
2021/10/05 11:52:24;;;;;;;2.15;1.00;;;16.30;99.90;;;;;;5052691;28;20120;-73
2021/10/05 11:54:52;;;;;;;2.88;1.40;;;17.00;99.90;;;;;;5069498;28;20033;-73
2021/10/05 11:57:24;;;;;;;13.23;4.53;;;18.30;99.90;;;;;;5053002;28;20385;-73
2021/10/05 11:59:50;;;;;;;6.57;1.30;;;19.60;99.90;;;;;;5053470;28;20029;-73
2021/10/05 12:02:21;;;;;;;2.22;1.00;;;21.10;99.90;;;;;;5053821;28;20115;-73
2021/10/05 12:04:51;;;;;;;1.58;0.70;;;20.90;99.90;;;;;;5069322;28;20033;-73
2021/10/05 12:07:20;;;;;;;1.58;0.90;;;20.30;99.90;;;;;;5068990;28;20037;-73
2021/10/05 12:10:04;;;;;;;2.45;1.17;;;19.60;99.90;;;;;;5053686;28;20021;-73
2021/10/05 12:12:37;;;;;;;4.68;1.00;;;19.30;99.90;;;;;;5068767;28;20029;-73
2021/10/05 12:15:11;;;;;;;1.30;0.82;;;19.40;99.90;;;;;;5069291;28;20033;-73
2021/10/05 12:17:37;;;;;;;1.35;0.80;;;19.30;99.90;;;;;;5053261;28;20515;-73
2021/10/05 12:20:15;;;;;;;1.17;0.70;;;19.30;99.90;;;;;;5053540;28;20033;-73
2021/10/05 12:22:46;;;;;;;2.95;0.75;;;20.20;99.90;;;;;;5068470;28;20363;-73
2021/10/05 12:25:22;;;;;;;1.80;0.98;;;20.70;99.90;;;;;;5068621;28;20082;-73
2021/10/05 12:27:50;;;;;;;1.80;0.80;;;20.80;99.50;;;;;;5053714;28;20035;-73
2021/10/05 12:30:19;;;;;;;1.55;0.70;;;20.50;99.90;;;;;;5068703;28;20108;-73
2021/10/05 12:33:12;;;;;;;1.58;0.60;;;20.60;99.90;;;;;;5053337;28;20056;-73
2021/10/05 12:35:41;;;;;;;2.28;0.80;;;20.10;99.90;;;;;;5052625;28;20102;-73
2021/10/05 12:38:18;;;;;;;2.13;1.00;;;19.40;99.90;;;;;;5068369;28;20487;-71
2021/10/05 12:40:52;;;;;;;1.88;0.90;;;19.50;99.90;;;;;;5052158;28;20047;-72
2021/10/05 12:43:41;;;;;;;1.40;0.70;;;19.20;99.90;;;;;;5052857;28;20482;-72
2021/10/05 12:46:19;;;;;;;2.47;0.80;;;19.20;99.90;;;;;;5053239;28;20045;-73
2021/10/05 12:48:49;;;;;;;2.92;1.00;;;19.50;99.90;;;;;;5067673;28;20087;-72
2021/10/05 12:51:23;;;;;;;1.98;0.70;;;18.80;99.90;;;;;;5053199;28;20535;-72